Time;durP1;ratioP1;P1;durP2;ratioP2;P2;SDS_P1;SDS_P2;PMS_P1;PMS_P2;Temp;Humidity;BMP_temperature;BMP_pressure;BME280_temperature;BME280_humidity;BME280_pressure;Samples;Min_cycle;Max_cycle;Signal;HPM_P1;HPM_P2
2023/04/05 00:00:21;;;;;;;19.95;9.38;;;;;;;7.63;79.30;99469.72;7345662;19;20017;-73
2023/04/05 00:02:53;;;;;;;21.77;9.00;;;;;;;7.60;79.12;99461.97;7346298;19;20044;-68
2023/04/05 00:05:28;;;;;;;32.90;10.32;;;;;;;7.59;79.40;99462.91;7341522;19;20015;-69
2023/04/05 00:07:53;;;;;;;23.67;10.77;;;;;;;7.57;79.42;99471.91;7347300;19;20149;-68
2023/04/05 00:10:22;;;;;;;21.10;9.88;;;;;;;7.58;79.56;99465.66;7342718;19;20028;-68
2023/04/05 00:12:49;;;;;;;14.20;9.07;;;;;;;7.55;79.59;99472.03;7341818;19;20021;-69
2023/04/05 00:15:15;;;;;;;20.65;9.10;;;;;;;7.52;79.48;99474.00;7342548;19;20074;-68
2023/04/05 00:17:39;;;;;;;12.35;8.77;;;;;;;7.51;79.64;99465.19;7341027;19;20031;-71
2023/04/05 00:20:06;;;;;;;14.38;8.35;;;;;;;7.49;79.65;99475.03;7342703;19;20019;-72
2023/04/05 00:22:34;;;;;;;14.48;8.82;;;;;;;7.46;79.76;99469.06;7342982;19;20335;-68
2023/04/05 00:25:02;;;;;;;13.80;8.77;;;;;;;7.42;79.94;99468.41;7346025;19;20015;-70
2023/04/05 00:27:36;;;;;;;20.25;8.55;;;;;;;7.40;80.06;99464.13;7345210;19;20054;-69
2023/04/05 00:30:05;;;;;;;20.05;9.85;;;;;;;7.40;80.00;99470.28;7341018;19;20458;-69
2023/04/05 00:32:30;;;;;;;18.25;9.70;;;;;;;7.35;80.42;99467.06;7343706;19;20480;-69
2023/04/05 00:34:55;;;;;;;18.10;9.85;;;;;;;7.32;80.25;99461.13;7341960;19;20465;-69
2023/04/05 00:37:21;;;;;;;16.50;10.00;;;;;;;7.30;80.34;99466.50;7342303;19;20010;-70
2023/04/05 00:39:45;;;;;;;19.83;9.20;;;;;;;7.26;80.55;99463.19;7340504;19;20031;-70
2023/04/05 00:42:10;;;;;;;16.00;9.27;;;;;;;7.23;80.43;99473.09;7341400;19;20026;-70
2023/04/05 00:44:35;;;;;;;15.18;8.75;;;;;;;7.22;80.64;99466.94;7341292;19;20007;-68
2023/04/05 00:49:34;;;;;;;19.15;9.32;;;;;;;7.21;80.82;99475.03;7341963;19;20058;-71
2023/04/05 00:52:03;;;;;;;16.95;9.57;;;;;;;7.17;80.98;99477.00;7341452;19;20399;-71
2023/04/05 00:54:28;;;;;;;14.02;8.80;;;;;;;7.15;81.01;99476.22;7342255;19;20058;-69
2023/04/05 00:56:55;;;;;;;22.15;10.48;;;;;;;7.14;81.16;99479.81;7344837;19;20225;-69
2023/04/05 00:59:20;;;;;;;15.60;10.07;;;;;;;7.11;80.98;99474.69;7339951;19;20011;-69
2023/04/05 01:01:53;;;;;;;15.30;10.48;;;;;;;7.11;81.10;99479.19;7340954;19;20018;-69
2023/04/05 01:04:20;;;;;;;18.85;9.85;;;;;;;7.12;81.45;99486.16;7342162;19;20412;-69
2023/04/05 01:06:50;;;;;;;19.30;9.52;;;;;;;7.11;81.37;99492.44;7343490;19;20470;-69
2023/04/05 01:09:30;;;;;;;13.70;9.18;;;;;;;7.15;81.12;99488.63;7342445;19;20078;-72
2023/04/05 01:12:00;;;;;;;20.30;11.02;;;;;;;7.06;81.14;99490.03;7342893;19;20014;-69
2023/04/05 01:14:25;;;;;;;16.65;9.52;;;;;;;7.04;81.29;99488.41;7341699;19;20015;-69
2023/04/05 01:16:56;;;;;;;17.13;9.07;;;;;;;6.98;81.46;99484.34;7339372;19;20022;-69
2023/04/05 01:19:21;;;;;;;14.75;9.32;;;;;;;7.01;81.56;99488.59;7340797;19;20082;-70
2023/04/05 01:22:27;;;;;;;20.05;10.57;;;;;;;7.07;81.49;99486.44;7340934;19;20014;-69
2023/04/05 01:25:09;;;;;;;19.50;9.70;;;;;;;6.98;81.38;99486.16;7340506;19;20019;-69
2023/04/05 01:27:50;;;;;;;13.85;9.43;;;;;;;6.96;81.44;99480.06;7342377;19;20051;-69
2023/04/05 01:30:23;;;;;;;16.77;8.77;;;;;;;6.96;81.32;99480.06;7340744;19;20018;-69
2023/04/05 01:33:03;;;;;;;16.42;9.98;;;;;;;6.96;81.73;99486.22;7339825;19;20019;-69
2023/04/05 01:36:13;;;;;;;17.63;9.45;;;;;;;6.99;81.83;99485.22;7341859;19;20010;-69
2023/04/05 01:38:40;;;;;;;14.82;9.38;;;;;;;6.90;81.81;99483.94;7337113;19;20555;-69
2023/04/05 01:41:06;;;;;;;21.60;10.65;;;;;;;6.87;81.83;99478.84;7340563;19;20022;-69
2023/04/05 01:43:31;;;;;;;17.60;11.55;;;;;;;6.86;81.87;99479.78;7335022;19;20053;-69
2023/04/05 01:45:59;;;;;;;17.13;9.25;;;;;;;6.81;81.83;99482.69;7335722;19;20313;-71
2023/04/05 01:48:24;;;;;;;16.35;10.18;;;;;;;6.82;81.97;99481.75;7336450;19;20332;-70
2023/04/05 01:50:49;;;;;;;18.13;9.30;;;;;;;6.79;81.68;99486.34;7337959;19;20015;-70
2023/04/05 01:53:15;;;;;;;17.17;9.77;;;;;;;6.79;82.00;99478.41;7339658;19;20026;-70
2023/04/05 01:55:39;;;;;;;17.90;10.15;;;;;;;6.76;81.97;99473.31;7338359;19;20481;-70
2023/04/05 01:58:06;;;;;;;17.85;10.35;;;;;;;6.71;82.07;99476.22;7337371;19;20518;-69
2023/04/05 02:00:36;;;;;;;13.75;10.13;;;;;;;6.72;82.18;99483.22;7336704;19;20022;-70
2023/04/05 02:03:00;;;;;;;16.95;10.02;;;;;;;6.70;81.94;99492.19;7336322;19;20019;-69
2023/04/05 02:05:26;;;;;;;16.25;10.52;;;;;;;6.68;82.10;99489.63;7336356;19;20086;-70
2023/04/05 02:07:51;;;;;;;17.70;9.15;;;;;;;6.68;82.26;99491.41;7338253;19;20040;-69
2023/04/05 02:10:18;;;;;;;20.52;10.32;;;;;;;6.65;82.34;99500.44;7335810;19;20023;-69
2023/04/05 02:12:43;;;;;;;15.75;9.43;;;;;;;6.63;82.27;99504.94;7335638;19;20426;-68
2023/04/05 02:15:09;;;;;;;16.60;10.23;;;;;;;6.63;82.51;99498.81;7337482;19;20422;-69
2023/04/05 02:17:37;;;;;;;15.57;10.65;;;;;;;6.60;82.63;99499.81;7338770;19;20794;-68
2023/04/05 02:20:09;;;;;;;18.10;9.07;;;;;;;6.61;82.76;99498.88;7349260;19;20010;-64
2023/04/05 02:22:35;;;;;;;18.30;9.95;;;;;;;6.57;82.70;99505.28;7349791;19;20400;-63
2023/04/05 02:27:31;;;;;;;17.75;10.63;;;;;;;6.52;82.89;99502.06;7346804;19;20022;-63
2023/04/05 02:29:56;;;;;;;18.75;10.30;;;;;;;6.53;83.06;99503.78;7344436;19;20053;-64
2023/04/05 02:32:21;;;;;;;15.50;9.38;;;;;;;6.50;82.98;99506.59;7344691;19;20339;-63
2023/04/05 02:34:46;;;;;;;18.42;9.70;;;;;;;6.47;82.87;99504.97;7344407;19;20026;-65
2023/04/05 02:37:10;;;;;;;15.65;10.00;;;;;;;6.45;83.10;99511.28;7344437;19;20010;-65
2023/04/05 02:39:39;;;;;;;16.30;10.77;;;;;;;6.45;83.12;99505.97;7345583;19;20029;-66
2023/04/05 02:42:04;;;;;;;16.05;10.20;;;;;;;6.44;83.18;99506.91;7344669;19;20015;-65
2023/04/05 02:44:32;;;;;;;16.73;10.20;;;;;;;6.43;83.27;99519.31;7344471;19;20007;-63
2023/04/05 02:46:56;;;;;;;16.08;10.68;;;;;;;6.40;83.24;99519.50;7343857;19;20474;-65
2023/04/05 02:49:28;;;;;;;19.55;11.57;;;;;;;6.39;83.21;99520.44;7347256;19;20447;-67
2023/04/05 02:51:55;;;;;;;26.80;10.85;;;;;;;6.36;83.22;99523.25;7343967;19;20026;-64
2023/04/05 02:54:24;;;;;;;17.75;10.70;;;;;;;6.39;83.33;99520.44;7345430;19;20609;-65
2023/04/05 02:56:56;;;;;;;18.65;11.60;;;;;;;6.36;83.22;99520.59;7345274;19;20028;-69
2023/04/05 02:59:24;;;;;;;24.15;10.77;;;;;;;6.38;83.19;99523.16;7350518;19;20018;-67
2023/04/05 03:01:48;;;;;;;19.08;10.85;;;;;;;6.38;83.30;99528.47;7344323;19;20014;-66
2023/04/05 03:04:25;;;;;;;16.52;10.10;;;;;;;6.39;83.29;99525.72;7344985;19;20018;-67
2023/04/05 03:06:56;;;;;;;16.23;10.52;;;;;;;6.39;82.76;99533.69;7345084;19;20010;-67
2023/04/05 03:09:22;;;;;;;16.40;10.25;;;;;;;6.40;82.96;99534.53;7346791;19;20354;-67
2023/04/05 03:11:50;;;;;;;15.50;9.65;;;;;;;6.40;82.89;99529.25;7343798;19;20018;-67
2023/04/05 03:14:17;;;;;;;13.68;9.63;;;;;;;6.44;82.86;99536.03;7343441;19;20018;-67
2023/04/05 03:16:45;;;;;;;15.57;9.88;;;;;;;6.46;82.79;99539.47;7347041;19;20010;-67
2023/04/05 03:19:29;;;;;;;18.05;10.63;;;;;;;6.48;82.58;99530.50;7345230;19;20082;-67
2023/04/05 03:22:02;;;;;;;21.10;12.00;;;;;;;6.58;82.45;99536.13;7349521;19;20046;-72
2023/04/05 03:24:33;;;;;;;22.13;10.70;;;;;;;6.68;82.38;99532.00;7351458;19;20006;-71
2023/04/05 03:27:02;;;;;;;19.40;10.07;;;;;;;6.78;82.36;99538.50;7349204;19;20497;-73
2023/04/05 03:29:29;;;;;;;18.08;10.75;;;;;;;6.94;82.08;99535.81;7349352;19;20704;-71
2023/04/05 03:31:58;;;;;;;14.93;10.10;;;;;;;7.04;81.45;99539.63;7349453;19;20027;-70
2023/04/05 03:34:27;;;;;;;14.55;9.55;;;;;;;7.13;80.92;99535.56;7346867;19;20022;-69
2023/04/05 03:37:00;;;;;;;15.00;9.40;;;;;;;7.28;80.67;99545.28;7347726;19;20025;-70
2023/04/05 03:39:35;;;;;;;14.52;9.25;;;;;;;7.44;80.02;99547.88;7347062;19;20014;-69
2023/04/05 03:42:00;;;;;;;16.08;9.63;;;;;;;7.54;79.60;99552.53;7347551;19;20006;-71
2023/04/05 03:44:25;;;;;;;12.13;8.93;;;;;;;7.68;79.27;99551.69;7347454;19;20094;-69
2023/04/05 03:46:50;;;;;;;13.43;8.63;;;;;;;7.80;78.73;99552.72;7347225;19;20007;-68
2023/04/05 03:49:15;;;;;;;20.27;10.18;;;;;;;7.93;78.06;99553.69;7349022;19;20018;-71
2023/04/05 03:51:43;;;;;;;14.18;9.48;;;;;;;8.07;77.78;99561.66;7347064;19;20078;-68
2023/04/05 03:54:10;;;;;;;26.75;10.48;;;;;;;8.19;77.35;99552.91;7346181;19;20030;-69
2023/04/05 03:56:36;;;;;;;11.52;8.75;;;;;;;8.34;76.98;99567.94;7344799;19;20010;-68
2023/04/05 03:59:10;;;;;;;19.80;9.57;;;;;;;8.52;76.49;99559.72;7344680;19;20010;-69
2023/04/05 04:01:38;;;;;;;15.10;10.45;;;;;;;8.63;75.58;99563.38;7344226;19;20021;-68
2023/04/05 04:04:04;;;;;;;15.20;9.23;;;;;;;8.73;75.06;99559.19;7347664;19;20014;-71
2023/04/05 04:06:29;;;;;;;16.35;10.50;;;;;;;8.81;74.35;99558.66;7350283;19;20054;-71
2023/04/05 04:08:56;;;;;;;19.65;9.02;;;;;;;8.87;73.67;99563.59;7349523;19;20026;-69
2023/04/05 04:14:03;;;;;;;15.55;9.60;;;;;;;9.00;72.85;99560.97;7346676;19;20029;-68
2023/04/05 04:16:46;;;;;;;17.77;10.65;;;;;;;9.06;72.48;99566.72;7342928;19;20031;-70
2023/04/05 04:19:43;;;;;;;16.95;8.95;;;;;;;9.22;71.89;99571.91;7340700;19;20019;-69
2023/04/05 04:22:37;;;;;;;19.73;10.20;;;;;;;9.45;71.33;99571.19;7340474;19;20014;-69
2023/04/05 04:25:30;;;;;;;21.92;9.40;;;;;;;9.74;70.57;99578.97;7340084;19;20113;-69
2023/04/05 04:28:18;;;;;;;14.93;9.32;;;;;;;10.03;69.63;99584.97;7339369;19;20010;-69
2023/04/05 04:30:49;;;;;;;17.33;8.35;;;;;;;10.22;68.66;99581.88;7339929;19;20003;-69
2023/04/05 04:33:35;;;;;;;14.30;8.18;;;;;;;10.36;67.86;99584.41;7340230;19;20133;-69
2023/04/05 04:36:16;;;;;;;15.38;7.75;;;;;;;10.41;67.35;99593.75;7342551;19;20440;-68
2023/04/05 04:39:06;;;;;;;13.93;8.55;;;;;;;10.47;67.03;99587.16;7339272;19;20014;-69
2023/04/05 04:42:04;;;;;;;11.90;8.10;;;;;;;10.55;66.31;99588.31;7339132;19;20014;-69
2023/04/05 04:45:05;;;;;;;12.73;8.70;;;;;;;10.53;66.27;99586.69;7340627;19;20030;-69
2023/04/05 04:47:48;;;;;;;14.30;9.02;;;;;;;10.55;66.05;99588.31;7340808;19;20235;-68
2023/04/05 04:50:18;;;;;;;12.90;8.25;;;;;;;10.66;65.81;99592.00;7343619;19;20022;-69
2023/04/05 04:52:45;;;;;;;18.40;9.38;;;;;;;10.82;65.50;99587.28;7341841;19;20027;-69
2023/04/05 04:55:13;;;;;;;18.33;9.65;;;;;;;11.01;64.76;99587.59;7341400;19;20014;-68
2023/04/05 04:57:40;;;;;;;17.33;8.52;;;;;;;11.16;64.37;99589.16;7341423;19;20014;-68
2023/04/05 05:00:13;;;;;;;31.65;9.07;;;;;;;11.29;63.98;99579.22;7340629;19;20026;-69
2023/04/05 05:02:43;;;;;;;22.02;10.13;;;;;;;11.38;63.46;99592.88;7338813;19;20412;-68
2023/04/05 05:05:08;;;;;;;19.48;9.65;;;;;;;11.33;62.95;99593.19;7340154;19;20030;-69
2023/04/05 05:07:36;;;;;;;17.25;9.38;;;;;;;11.53;62.86;99602.38;7341071;19;20010;-69
2023/04/05 05:10:02;;;;;;;15.40;8.85;;;;;;;11.61;62.64;99597.31;7341655;19;20022;-71
2023/04/05 05:12:35;;;;;;;17.20;8.73;;;;;;;11.69;62.65;99610.91;7340818;19;20014;-71
2023/04/05 05:15:09;;;;;;;18.05;9.90;;;;;;;11.79;61.99;99617.28;7341506;19;20011;-69
2023/04/05 05:17:34;;;;;;;21.10;10.18;;;;;;;11.80;61.91;99615.47;7337786;19;20010;-70
2023/04/05 05:20:03;;;;;;;25.38;10.70;;;;;;;11.91;61.47;99611.00;7340171;19;20025;-69
2023/04/05 05:22:30;;;;;;;16.83;10.38;;;;;;;12.06;61.03;99608.13;7342225;19;20048;-69
2023/04/05 05:24:55;;;;;;;20.30;9.77;;;;;;;12.25;60.57;99616.38;7339573;19;20006;-70
2023/04/05 05:27:21;;;;;;;17.80;10.50;;;;;;;12.50;59.65;99612.63;7341969;19;20108;-69
2023/04/05 05:29:45;;;;;;;20.08;9.90;;;;;;;12.72;59.18;99617.94;7340543;19;20051;-69
2023/04/05 05:32:14;;;;;;;25.10;10.93;;;;;;;12.84;58.50;99613.44;7342117;19;20472;-71
2023/04/05 05:34:40;;;;;;;23.20;10.35;;;;;;;12.97;57.96;99623.00;7344008;19;20011;-69
2023/04/05 05:37:08;;;;;;;17.75;9.88;;;;;;;13.06;57.32;99616.91;7345641;19;20465;-69
2023/04/05 05:39:36;;;;;;;17.02;10.30;;;;;;;13.21;56.89;99622.84;7340094;19;20086;-71
2023/04/05 05:42:06;;;;;;;18.40;9.70;;;;;;;13.42;56.34;99618.41;7340512;19;20013;-70
2023/04/05 05:44:32;;;;;;;18.05;9.93;;;;;;;13.77;55.57;99606.50;7338725;19;20020;-71
2023/04/05 05:46:59;;;;;;;20.50;9.70;;;;;;;14.08;54.18;99610.97;7339356;19;20497;-71
2023/04/05 05:49:24;;;;;;;19.58;9.82;;;;;;;14.30;53.77;99604.56;7340344;19;20346;-71
2023/04/05 05:51:51;;;;;;;15.05;8.95;;;;;;;14.50;53.14;99614.44;7338406;19;20015;-70
2023/04/05 05:54:22;;;;;;;15.45;9.48;;;;;;;14.86;52.47;99622.88;7344460;19;20042;-70
2023/04/05 05:56:50;;;;;;;31.77;10.48;;;;;;;15.02;51.36;99614.28;7346790;19;20021;-71
2023/04/05 05:59:16;;;;;;;18.42;8.40;;;;;;;15.24;51.04;99616.72;7347822;19;20074;-70
2023/04/05 06:01:45;;;;;;;23.83;10.75;;;;;;;15.43;49.97;99608.69;7347562;19;20082;-69
2023/04/05 06:04:09;;;;;;;22.40;10.23;;;;;;;15.55;50.00;99614.81;7347601;19;20022;-70
2023/04/05 06:06:34;;;;;;;18.80;10.60;;;;;;;15.34;50.29;99612.22;7342884;19;20070;-70
2023/04/05 06:09:00;;;;;;;19.55;9.50;;;;;;;15.18;50.43;99628.03;7347347;19;20018;-71
2023/04/05 06:11:25;;;;;;;20.08;9.27;;;;;;;15.04;50.29;99620.38;7346948;19;20520;-70
2023/04/05 06:13:51;;;;;;;15.75;8.77;;;;;;;14.99;50.24;99628.00;7349093;19;20015;-70
2023/04/05 06:18:47;;;;;;;23.45;10.13;;;;;;;15.25;50.06;99629.16;7346651;19;20046;-70
2023/04/05 06:21:13;;;;;;;20.75;10.45;;;;;;;15.83;49.14;99619.31;7347215;19;20007;-71
2023/04/05 06:23:40;;;;;;;17.48;9.82;;;;;;;16.55;47.77;99632.16;7346651;19;20023;-72
2023/04/05 06:26:05;;;;;;;16.08;9.20;;;;;;;17.32;45.94;99620.09;7345101;19;20022;-70
2023/04/05 06:28:30;;;;;;;19.90;9.35;;;;;;;17.93;44.69;99622.03;7347192;19;20026;-69
2023/04/05 06:30:58;;;;;;;20.98;10.50;;;;;;;18.56;44.17;99629.88;7344851;19;20402;-69
2023/04/05 06:33:23;;;;;;;17.30;9.57;;;;;;;19.10;42.64;99620.47;7350157;19;20014;-70
2023/04/05 06:35:48;;;;;;;33.60;11.13;;;;;;;19.40;41.65;99632.56;7347347;19;20007;-70
2023/04/05 06:38:13;;;;;;;21.83;9.50;;;;;;;19.70;41.00;99623.84;7348489;19;20034;-66
2023/04/05 06:40:37;;;;;;;21.65;11.77;;;;;;;19.97;40.20;99632.66;7349889;19;20033;-73
2023/04/05 06:43:04;;;;;;;22.88;9.32;;;;;;;20.12;39.78;99636.34;7351212;19;20033;-66
2023/04/05 06:45:31;;;;;;;21.95;9.25;;;;;;;20.02;39.40;99636.53;7349793;19;20014;-66
2023/04/05 06:47:57;;;;;;;21.60;10.25;;;;;;;20.24;39.21;99635.81;7348704;19;20014;-68
2023/04/05 06:50:21;;;;;;;26.05;10.15;;;;;;;20.57;38.94;99633.06;7348307;19;20002;-67
2023/04/05 06:52:46;;;;;;;24.38;9.00;;;;;;;20.79;38.53;99626.88;7349944;19;20018;-67
2023/04/05 06:55:11;;;;;;;18.70;9.65;;;;;;;20.90;37.95;99626.50;7345214;19;20109;-68
2023/04/05 06:57:37;;;;;;;21.83;9.70;;;;;;;20.96;37.80;99628.53;7351005;19;20473;-68
2023/04/05 07:00:16;;;;;;;17.17;9.05;;;;;;;21.03;38.17;99628.66;7347286;19;20473;-68
2023/04/05 07:02:43;;;;;;;24.85;9.35;;;;;;;20.99;37.61;99632.75;7345684;19;20026;-67
2023/04/05 07:05:12;;;;;;;26.60;9.88;;;;;;;21.07;37.56;99640.84;7343464;19;20018;-68
2023/04/05 07:07:42;;;;;;;23.15;10.50;;;;;;;21.17;37.85;99646.88;7347712;19;20023;-69
2023/04/05 07:10:17;;;;;;;30.35;10.88;;;;;;;21.29;36.81;99644.66;7351671;19;20017;-68
2023/04/05 07:12:41;;;;;;;40.90;11.02;;;;;;;21.41;37.43;99642.38;7350708;19;20484;-67
2023/04/05 07:15:07;;;;;;;18.85;9.43;;;;;;;21.57;36.81;99636.84;7345474;19;20334;-68
2023/04/05 07:17:36;;;;;;;23.70;11.45;;;;;;;21.90;36.15;99637.44;7343401;19;20021;-68
2023/04/05 07:20:05;;;;;;;28.20;10.23;;;;;;;22.34;35.78;99637.59;7346028;19;20007;-69
2023/04/05 07:22:34;;;;;;;23.75;9.07;;;;;;;22.29;34.96;99640.84;7347536;19;20073;-69
2023/04/05 07:25:08;;;;;;;23.67;9.70;;;;;;;22.30;34.95;99638.97;7354286;19;20025;-68
2023/04/05 07:27:33;;;;;;;19.48;9.40;;;;;;;22.49;34.68;99640.31;7356274;19;20051;-68
2023/04/05 07:29:58;;;;;;;21.98;11.60;;;;;;;23.12;34.21;99631.63;7354468;19;20018;-68
2023/04/05 07:32:23;;;;;;;30.77;10.68;;;;;;;23.65;33.61;99630.34;7359023;19;20026;-68
2023/04/05 07:34:51;;;;;;;23.73;10.48;;;;;;;24.01;32.26;99641.16;7350117;19;20347;-69
2023/04/05 07:37:17;;;;;;;16.38;9.85;;;;;;;23.86;32.29;99643.97;7356481;19;20063;-68
2023/04/05 07:39:45;;;;;;;27.52;12.00;;;;;;;23.37;32.94;99632.94;7352572;19;20417;-68
2023/04/05 07:42:10;;;;;;;25.52;10.57;;;;;;;23.16;33.49;99646.50;7350682;19;20018;-68
2023/04/05 07:44:35;;;;;;;22.90;10.32;;;;;;;23.05;33.62;99639.66;7351413;19;20018;-67
2023/04/05 07:47:00;;;;;;;26.70;10.48;;;;;;;22.89;33.50;99649.91;7348507;19;20021;-69
2023/04/05 07:49:29;;;;;;;23.10;9.50;;;;;;;22.72;33.85;99644.63;7348640;19;20011;-68
2023/04/05 07:51:57;;;;;;;18.38;10.43;;;;;;;22.70;34.08;99648.56;7347735;19;20014;-69
2023/04/05 07:54:32;;;;;;;23.67;10.02;;;;;;;22.83;34.22;99646.06;7346912;19;20022;-68
2023/04/05 07:56:57;;;;;;;16.05;8.75;;;;;;;22.65;33.42;99643.72;7349195;19;20470;-67
2023/04/05 07:59:24;;;;;;;28.17;9.20;;;;;;;23.13;33.53;99644.19;7350877;19;20322;-67
2023/04/05 08:01:53;;;;;;;28.20;10.93;;;;;;;23.73;32.35;99640.25;7350795;19;20465;-67
2023/04/05 08:04:19;;;;;;;28.88;11.27;;;;;;;24.23;32.17;99642.84;7348755;19;20019;-75
2023/04/05 08:06:44;;;;;;;17.05;9.38;;;;;;;24.64;31.35;99642.09;7346419;19;20011;-69
2023/04/05 08:09:10;;;;;;;17.05;8.68;;;;;;;24.80;30.69;99641.78;7352198;19;20037;-68
2023/04/05 08:11:35;;;;;;;18.70;9.50;;;;;;;24.85;30.66;99646.59;7355179;19;20018;-66
2023/04/05 08:14:04;;;;;;;16.70;8.57;;;;;;;25.02;30.32;99650.72;7353127;19;20481;-67
2023/04/05 08:16:33;;;;;;;22.90;9.45;;;;;;;25.17;29.85;99643.22;7346652;19;20019;-69
2023/04/05 08:19:06;;;;;;;22.45;9.75;;;;;;;25.70;29.30;99648.91;7352195;19;20018;-68
2023/04/05 08:24:06;;;;;;;19.38;9.73;;;;;;;25.64;28.80;99645.09;7343868;19;20026;-69
2023/04/05 08:26:35;;;;;;;17.35;8.88;;;;;;;25.36;29.10;99662.63;7346884;19;20019;-67
2023/04/05 08:29:01;;;;;;;20.85;9.00;;;;;;;24.90;30.09;99646.84;7343869;19;20362;-68
2023/04/05 08:31:28;;;;;;;22.38;10.43;;;;;;;24.49;30.55;99660.47;7344101;19;20054;-68
2023/04/05 08:33:57;;;;;;;22.88;9.68;;;;;;;24.28;31.18;99644.13;7346207;19;20338;-69
2023/04/05 08:36:25;;;;;;;17.95;9.48;;;;;;;24.30;31.07;99651.06;7346938;19;20010;-68
2023/04/05 08:38:52;;;;;;;17.83;9.27;;;;;;;23.99;31.32;99650.56;7346071;19;20011;-70
2023/04/05 08:41:23;;;;;;;16.20;9.05;;;;;;;23.64;31.86;99658.59;7348375;19;20026;-72
2023/04/05 08:43:55;;;;;;;22.52;10.25;;;;;;;23.20;32.54;99658.69;7351718;19;20039;-72
2023/04/05 08:46:31;;;;;;;18.80;9.63;;;;;;;23.04;32.67;99659.72;7347569;19;20033;-70
2023/04/05 08:48:57;;;;;;;21.48;9.68;;;;;;;22.99;32.98;99656.75;7346393;19;20022;-71
2023/04/05 08:51:23;;;;;;;20.30;9.15;;;;;;;22.98;32.59;99655.06;7345915;19;20047;-71
2023/04/05 08:56:24;;;;;;;15.68;9.60;;;;;;;23.29;31.99;99651.25;7349474;19;20465;-70
2023/04/05 08:59:00;;;;;;;16.13;9.50;;;;;;;23.91;32.21;99648.84;7346353;19;20018;-70
2023/04/05 09:01:33;;;;;;;17.58;9.30;;;;;;;24.34;31.12;99643.34;7346103;19;20027;-70
2023/04/05 09:04:11;;;;;;;24.42;10.55;;;;;;;24.76;30.81;99645.94;7347147;19;20014;-69
2023/04/05 09:06:38;;;;;;;19.20;9.27;;;;;;;24.56;30.33;99648.53;7340020;19;20019;-70
2023/04/05 09:09:07;;;;;;;19.98;9.18;;;;;;;24.74;30.01;99653.47;7343386;19;20010;-70
2023/04/05 09:11:35;;;;;;;23.80;9.07;;;;;;;24.52;30.45;99663.59;7343768;19;20019;-70
2023/04/05 09:14:11;;;;;;;21.67;10.30;;;;;;;24.34;30.39;99651.53;7343339;19;20074;-69
2023/04/05 09:16:39;;;;;;;19.45;8.93;;;;;;;24.10;30.53;99652.75;7346157;19;20014;-69
2023/04/05 09:19:05;;;;;;;14.93;9.85;;;;;;;24.43;30.60;99650.34;7343051;19;20039;-69
2023/04/05 09:22:02;;;;;;;19.48;9.68;;;;;;;25.81;30.22;99650.19;7344969;19;20031;-69
2023/04/05 09:24:43;;;;;;;20.00;10.07;;;;;;;26.63;28.67;99658.00;7340557;19;20027;-69
2023/04/05 09:27:14;;;;;;;16.30;9.52;;;;;;;27.10;27.23;99651.34;7341331;19;20031;-70
2023/04/05 09:29:46;;;;;;;16.17;9.65;;;;;;;28.15;26.53;99645.31;7342082;19;20330;-69
2023/04/05 09:32:14;;;;;;;17.38;9.45;;;;;;;29.54;25.46;99643.88;7355097;19;20078;-70
2023/04/05 09:34:41;;;;;;;17.58;9.18;;;;;;;30.28;24.16;99646.13;7358590;19;20014;-68
2023/04/05 09:37:19;;;;;;;20.10;9.48;;;;;;;30.97;23.58;99644.47;7356762;19;20070;-69
2023/04/05 09:39:48;;;;;;;15.13;8.63;;;;;;;31.04;23.19;99647.91;7342071;19;20015;-71
2023/04/05 09:42:15;;;;;;;16.98;8.77;;;;;;;30.81;23.34;99652.63;7342931;19;20011;-69
2023/04/05 09:45:01;;;;;;;14.35;8.90;;;;;;;30.45;24.33;99645.44;7342308;19;20414;-70
2023/04/05 09:47:31;;;;;;;11.07;9.07;;;;;;;29.59;24.17;99658.56;7342885;19;20022;-68
2023/04/05 09:50:00;;;;;;;16.15;9.57;;;;;;;29.46;24.46;99638.72;7341648;19;20010;-69
2023/04/05 09:52:32;;;;;;;17.75;9.38;;;;;;;29.70;24.18;99645.09;7340736;19;20054;-69
2023/04/05 09:54:59;;;;;;;12.70;9.02;;;;;;;29.10;24.46;99645.88;7347601;19;20350;-70
2023/04/05 09:57:28;;;;;;;20.40;8.82;;;;;;;28.22;25.13;99642.53;7341218;19;20014;-70
2023/04/05 09:59:59;;;;;;;18.35;8.85;;;;;;;27.66;25.90;99639.75;7342060;19;20047;-71
2023/04/05 10:02:36;;;;;;;21.77;9.05;;;;;;;28.29;25.64;99629.63;7340809;19;20013;-70
2023/04/05 10:05:07;;;;;;;16.40;8.98;;;;;;;29.38;24.81;99630.78;7342763;19;20019;-70
2023/04/05 10:07:33;;;;;;;15.52;9.77;;;;;;;30.13;23.91;99634.75;7342808;19;20035;-71
2023/04/05 10:10:01;;;;;;;16.88;9.30;;;;;;;30.39;23.61;99636.19;7340352;19;20505;-72
2023/04/05 10:12:31;;;;;;;16.33;8.52;;;;;;;30.32;23.83;99635.50;7339560;19;20081;-72
2023/04/05 10:14:56;;;;;;;20.60;9.85;;;;;;;30.29;23.69;99635.97;7337892;19;20046;-71
2023/04/05 10:17:27;;;;;;;20.60;11.05;;;;;;;28.37;24.87;99636.69;7337760;19;20018;-70
2023/04/05 10:20:06;;;;;;;21.02;10.15;;;;;;;26.02;27.71;99639.06;7339476;19;20015;-70
2023/04/05 10:22:48;;;;;;;17.10;9.60;;;;;;;24.41;30.00;99631.44;7339964;19;20023;-69
2023/04/05 10:25:19;;;;;;;18.52;9.60;;;;;;;23.05;32.00;99638.81;7340378;19;20021;-72
2023/04/05 10:27:47;;;;;;;15.07;9.35;;;;;;;21.82;33.38;99641.06;7340940;19;20018;-68
2023/04/05 10:30:16;;;;;;;15.02;8.60;;;;;;;20.90;34.57;99645.47;7339583;19;20025;-69
2023/04/05 10:33:06;;;;;;;17.05;9.15;;;;;;;20.57;35.21;99644.75;7344301;19;20010;-69
2023/04/05 10:35:33;;;;;;;17.77;9.20;;;;;;;19.63;36.92;99633.66;7337956;19;20023;-70
2023/04/05 10:38:34;;;;;;;23.25;10.52;;;;;;;19.51;37.31;99630.44;7338245;19;20025;-68
2023/04/05 10:41:14;;;;;;;23.63;9.20;;;;;;;18.94;38.09;99642.91;7342662;19;20028;-68
2023/04/05 10:43:46;;;;;;;22.15;10.10;;;;;;;18.30;39.59;99649.59;7340190;19;20474;-68
2023/04/05 10:46:18;;;;;;;26.65;9.38;;;;;;;18.12;40.26;99640.72;7340194;19;20015;-67
2023/04/05 10:49:08;;;;;;;15.45;8.57;;;;;;;18.01;39.91;99643.69;7342544;19;20052;-68
2023/04/05 10:51:35;;;;;;;21.02;9.00;;;;;;;17.51;40.38;99638.81;7342826;19;20019;-69
2023/04/05 10:54:00;;;;;;;13.02;8.60;;;;;;;17.10;41.20;99642.09;7343132;19;20333;-68
2023/04/05 10:56:26;;;;;;;17.20;8.90;;;;;;;16.83;41.48;99634.88;7342807;19;20027;-68
2023/04/05 10:58:52;;;;;;;18.67;8.13;;;;;;;16.70;42.02;99638.75;7342277;19;20007;-68
2023/04/05 11:01:19;;;;;;;16.02;8.10;;;;;;;16.71;42.58;99644.97;7342542;19;20043;-68
2023/04/05 11:03:45;;;;;;;18.50;9.27;;;;;;;16.60;42.17;99634.38;7342005;19;20014;-67
2023/04/05 11:06:27;;;;;;;14.45;7.20;;;;;;;16.59;42.65;99632.69;7341269;19;20358;-68
2023/04/05 11:08:56;;;;;;;15.98;8.55;;;;;;;16.45;43.45;99634.03;7348586;19;20060;-68
2023/04/05 11:11:22;;;;;;;17.60;7.72;;;;;;;16.49;43.41;99632.72;7344587;19;20018;-67
2023/04/05 11:13:57;;;;;;;20.60;8.30;;;;;;;16.50;43.45;99633.56;7344611;19;20424;-69
2023/04/05 11:16:37;;;;;;;15.32;7.93;;;;;;;16.48;44.18;99633.72;7343519;19;20019;-67
2023/04/05 11:19:03;;;;;;;15.48;8.77;;;;;;;16.47;43.67;99625.81;7351079;19;20022;-66
2023/04/05 11:21:28;;;;;;;20.00;8.75;;;;;;;16.42;43.73;99628.09;7345549;19;20074;-68
2023/04/05 11:24:07;;;;;;;16.45;8.32;;;;;;;16.50;44.25;99631.72;7344115;19;20014;-67
2023/04/05 11:26:32;;;;;;;17.80;8.90;;;;;;;16.24;43.99;99619.94;7341842;19;20018;-66
2023/04/05 11:28:57;;;;;;;19.92;8.25;;;;;;;16.05;44.49;99634.25;7349129;19;20078;-69
2023/04/05 11:31:25;;;;;;;15.77;8.38;;;;;;;15.90;44.69;99619.59;7347134;19;20472;-66
2023/04/05 11:33:57;;;;;;;18.90;8.32;;;;;;;15.84;45.48;99615.63;7351143;19;20014;-68
2023/04/05 11:36:33;;;;;;;14.75;8.70;;;;;;;15.73;46.02;99618.47;7348539;19;20018;-68
2023/04/05 11:39:21;;;;;;;17.20;8.38;;;;;;;15.83;45.93;99613.91;7351185;19;20073;-67
2023/04/05 11:41:59;;;;;;;19.45;8.30;;;;;;;15.83;45.34;99615.75;7358772;19;20427;-66
2023/04/05 11:44:25;;;;;;;19.92;8.52;;;;;;;15.65;45.73;99618.34;7352864;19;20521;-69
2023/04/05 11:46:52;;;;;;;17.10;8.77;;;;;;;15.56;46.14;99617.34;7351100;19;20030;-69
2023/04/05 11:49:24;;;;;;;28.48;9.45;;;;;;;15.52;46.22;99618.59;7352794;19;20030;-67
2023/04/05 11:51:51;;;;;;;27.33;10.93;;;;;;;15.44;46.32;99612.22;7356401;19;20034;-66
2023/04/05 11:54:30;;;;;;;23.85;8.82;;;;;;;15.46;46.87;99604.88;7354670;19;20018;-69